Lake City, TN (37769)

10:59 PM EST on January 19, 2017 (GMT -0500)
Rocky Top | | Change Station

Elev 1201 ft 36.22 °N, 84.14 °W | Updated 20 seconds ago

Overcast
Overcast
49.3 °F
Feels Like 49 °F
N
1.1
Wind Variable Wind from NW

Today
High -- | Low -- °F
--% Chance of Precip.
Yesterday
High -- | Low -- °F
Precip. -- in
Pressure 29.84 in
Visibility 10.0 miles
Clouds Mostly Cloudy 5000 ft
Mostly Cloudy 5500 ft
Overcast 7000 ft
Windchill 49 °F
Dew Point 47 °F
Humidity 92%
Rainfall 0.60 in
Snow Depth Not available.
7:45 AM 5:49 PM
Waning Gibbous, 48% visible
METAR KOQT 200353Z AUTO 00000KT 10SM BKN050 BKN055 OVC070 11/08 A2984 RMK AO2 RAB15E32 SLP105 P0000 T01110083
Pressure 29.84 in
Visibility 10.0 miles
Clouds Mostly Cloudy 5000 ft
Mostly Cloudy 5500 ft
Overcast 7000 ft
Windchill 49 °F
Dew Point 47 °F
Humidity 92%
Rainfall 0.60 in
Snow Depth Not available.
7:45 AM 5:49 PM
Waning Gibbous, 48% visible
METAR KOQT 200353Z AUTO 00000KT 10SM BKN050 BKN055 OVC070 11/08 A2984 RMK AO2 RAB15E32 SLP105 P0000 T01110083

Get Your Daily Forecast Email!

Thanks for signing up!

Be on the lookout for a verification email in your inbox.

You'll start receiving the daily forecast at 8 AM.

×

10-Day Weather Forecast

Almanac

Astronomy

Jan. 19, 2017 Rise Set
Actual Time
Civil Twilight
Nautical Twilight
Astronomical Twilight
Moon
Length of Visible Light
Length of Day
Tomorrow will be .
, % of the Moon is Illuminated

Today's Extremes

State Highs State Lows

Community

WunderPhotos

Upload Photos

1,962,540 photos uploaded!

WunderBlog® & News

Nearby

Air Quality

  Air Quality AQ Index Pollutant
Not available.

Snow Depth

Station Depth Elevation

Earthquake Activity

City Distance Mag. Time & Date
Minimum magnitude displayed is 2.5.

Coastal Water Temperatures

Place Temperature

Stations

Nearby Weather Stations

Station Location Temp. Windchill Dew Point Humidity Wind Precip. Elev Updated Type
                   

Watches & Warnings

There are currently no watches in effect.